Time;durP1;ratioP1;P1;durP2;ratioP2;P2;SDS_P1;SDS_P2;PMS_P1;PMS_P2;Temp;Humidity;BMP_temperature;BMP_pressure;BME280_temperature;BME280_humidity;BME280_pressure;Samples;Min_cycle;Max_cycle;Signal;HPM_P1;HPM_P2
2023/10/05 00:00:39;;;;;;;;;;;18.90;68.60;;;;;;5107962;28;20049;-70
2023/10/05 00:03:06;;;;;;;;;;;18.90;68.60;;;;;;5107675;28;19920;-67
2023/10/05 00:05:35;;;;;;;;;;;18.90;68.60;;;;;;5109103;28;19920;-71
2023/10/05 00:08:03;;;;;;;;;;;18.90;68.60;;;;;;5107724;28;19963;-71
2023/10/05 00:10:28;;;;;;;;;;;18.90;68.60;;;;;;5107716;28;19931;-67
2023/10/05 00:12:55;;;;;;;;;;;18.90;68.60;;;;;;5103417;28;20018;-71
2023/10/05 00:15:23;;;;;;;;;;;18.90;68.60;;;;;;5094113;28;19920;-72
2023/10/05 00:17:49;;;;;;;;;;;18.90;68.60;;;;;;5095137;28;19963;-70
2023/10/05 00:20:22;;;;;;;;;;;18.90;69.40;;;;;;5095319;28;20343;-72
2023/10/05 00:22:49;;;;;;;;;;;18.90;68.70;;;;;;5093885;28;19975;-67
2023/10/05 00:25:17;;;;;;;;;;;18.90;68.70;;;;;;5094160;28;20329;-68
2023/10/05 00:27:45;;;;;;;;;;;18.90;68.70;;;;;;5094171;28;20011;-71
2023/10/05 00:30:16;;;;;;;;;;;18.80;68.70;;;;;;5093720;28;19920;-71
2023/10/05 00:32:46;;;;;;;;;;;18.90;68.70;;;;;;5094099;28;19927;-70
2023/10/05 00:35:18;;;;;;;;;;;18.80;68.60;;;;;;5095169;28;19934;-68
2023/10/05 00:37:45;;;;;;;;;;;18.90;68.70;;;;;;5095078;28;19924;-69
2023/10/05 00:40:14;;;;;;;;;;;18.80;68.70;;;;;;5094824;28;19928;-70
2023/10/05 00:42:40;;;;;;;;;;;18.80;68.70;;;;;;5093538;28;19924;-71
2023/10/05 00:45:09;;;;;;;;;;;18.80;68.70;;;;;;5093425;28;19927;-72
2023/10/05 00:47:34;;;;;;;;;;;18.90;68.80;;;;;;5093527;28;19927;-67
2023/10/05 00:50:01;;;;;;;;;;;18.80;68.70;;;;;;5094878;28;20291;-67
2023/10/05 00:52:29;;;;;;;;;;;18.80;68.70;;;;;;5093428;28;19970;-72
2023/10/05 00:54:59;;;;;;;;;;;18.80;68.70;;;;;;5093266;28;19966;-71
2023/10/05 00:57:25;;;;;;;;;;;18.80;68.70;;;;;;5093605;28;19920;-71
2023/10/05 01:00:16;;;;;;;;;;;18.80;68.70;;;;;;5094438;28;19927;-67
2023/10/05 01:02:46;;;;;;;;;;;18.80;68.70;;;;;;5092802;28;19924;-67
2023/10/05 01:05:16;;;;;;;;;;;18.80;68.70;;;;;;5093082;28;20011;-71
2023/10/05 01:13:20;;;;;;;;;;;18.80;68.70;;;;;;5110408;27;19912;-71
2023/10/05 01:15:48;;;;;;;;;;;18.70;68.70;;;;;;5110229;28;20242;-70
2023/10/05 01:18:13;;;;;;;;;;;18.80;68.80;;;;;;5109135;28;19927;-72
2023/10/05 01:20:42;;;;;;;;;;;18.80;68.80;;;;;;5109006;28;19919;-67
2023/10/05 01:23:08;;;;;;;;;;;18.70;68.70;;;;;;5109195;28;19969;-67
2023/10/05 01:25:36;;;;;;;;;;;18.70;68.80;;;;;;5108739;28;19928;-71
2023/10/05 01:28:01;;;;;;;;;;;18.80;68.80;;;;;;5109046;28;19920;-71
2023/10/05 01:30:27;;;;;;;;;;;18.70;68.70;;;;;;5109950;28;20010;-67
2023/10/05 01:32:54;;;;;;;;;;;18.80;68.80;;;;;;5109822;28;20368;-71
2023/10/05 01:35:20;;;;;;;;;;;18.80;68.80;;;;;;5109782;28;19971;-67
2023/10/05 01:37:50;;;;;;;;;;;18.70;68.80;;;;;;5109750;28;20318;-71
2023/10/05 01:42:59;;;;;;;;;;;18.70;68.80;;;;;;5110209;27;19912;-71
2023/10/05 01:45:25;;;;;;;;;;;18.70;68.80;;;;;;5108911;28;19920;-72
2023/10/05 01:47:51;;;;;;;;;;;18.70;68.80;;;;;;5110160;28;19924;-68
2023/10/05 01:50:19;;;;;;;;;;;18.70;68.80;;;;;;5109140;28;19920;-68
2023/10/05 01:52:46;;;;;;;;;;;18.70;68.80;;;;;;5109065;28;19930;-71
2023/10/05 01:55:14;;;;;;;;;;;18.70;68.90;;;;;;5109004;28;19920;-71
2023/10/05 01:57:42;;;;;;;;;;;18.70;68.90;;;;;;5108958;28;19963;-70
2023/10/05 02:00:14;;;;;;;;;;;18.70;68.90;;;;;;5109004;28;19920;-71
2023/10/05 02:02:41;;;;;;;;;;;18.70;68.90;;;;;;5108414;28;19924;-71
2023/10/05 02:05:07;;;;;;;;;;;18.70;68.90;;;;;;5108923;28;19923;-71
2023/10/05 02:07:35;;;;;;;;;;;18.70;68.80;;;;;;5108504;28;19955;-70
2023/10/05 02:10:03;;;;;;;;;;;18.70;68.80;;;;;;5108853;28;19923;-70
2023/10/05 02:12:29;;;;;;;;;;;18.70;68.90;;;;;;5108851;28;19927;-72
2023/10/05 02:14:57;;;;;;;;;;;18.70;68.80;;;;;;5108828;28;19927;-68
2023/10/05 02:17:23;;;;;;;;;;;18.70;68.90;;;;;;5109445;28;20427;-67
2023/10/05 02:19:49;;;;;;;;;;;18.70;68.80;;;;;;5108356;28;19920;-68
2023/10/05 02:22:14;;;;;;;;;;;18.70;68.80;;;;;;5108228;28;19924;-67
2023/10/05 02:24:41;;;;;;;;;;;18.70;68.80;;;;;;5108346;28;19988;-72
2023/10/05 02:27:14;;;;;;;;;;;18.70;68.90;;;;;;5108339;28;19923;-70
2023/10/05 02:29:41;;;;;;;;;;;18.70;68.90;;;;;;5108120;28;19927;-67
2023/10/05 02:32:10;;;;;;;;;;;18.70;68.80;;;;;;5108069;28;20019;-71
2023/10/05 02:34:41;;;;;;;;;;;18.70;68.80;;;;;;5108334;28;19951;-70
2023/10/05 02:37:11;;;;;;;;;;;18.70;68.90;;;;;;5108011;28;19940;-70
2023/10/05 02:39:37;;;;;;;;;;;18.70;68.90;;;;;;5109323;28;19920;-67
2023/10/05 02:42:05;;;;;;;;;;;18.60;68.90;;;;;;5107654;28;20260;-70
2023/10/05 02:44:34;;;;;;;;;;;18.70;68.90;;;;;;5109035;28;19924;-70
2023/10/05 02:47:00;;;;;;;;;;;18.70;68.90;;;;;;5107995;28;19924;-67
2023/10/05 02:49:26;;;;;;;;;;;18.70;69.00;;;;;;5109064;28;20316;-67
2023/10/05 02:51:52;;;;;;;;;;;18.90;68.80;;;;;;5108096;28;19920;-67
2023/10/05 02:54:22;;;;;;;;;;;19.30;68.10;;;;;;5095395;28;20378;-71
2023/10/05 02:56:48;;;;;;;;;;;19.70;67.10;;;;;;5095494;28;19920;-71
2023/10/05 02:59:15;;;;;;;;;;;20.20;65.70;;;;;;5093986;28;19994;-67
2023/10/05 03:01:43;;;;;;;;;;;20.80;64.20;;;;;;5094081;28;19924;-67
2023/10/05 03:04:16;;;;;;;;;;;21.50;62.40;;;;;;5094227;28;19920;-67
2023/10/05 03:06:42;;;;;;;;;;;22.10;60.60;;;;;;5093911;28;20457;-67
2023/10/05 03:09:08;;;;;;;;;;;22.80;58.90;;;;;;5094130;28;19920;-67
2023/10/05 03:11:38;;;;;;;;;;;23.40;57.50;;;;;;5093891;28;20387;-68
2023/10/05 03:14:04;;;;;;;;;;;23.80;56.30;;;;;;5093690;28;20372;-71
2023/10/05 03:16:30;;;;;;;;;;;24.20;55.20;;;;;;5093972;28;19927;-70
2023/10/05 03:19:00;;;;;;;;;;;24.50;54.50;;;;;;5094884;28;19920;-70
2023/10/05 03:21:26;;;;;;;;;;;24.70;54.10;;;;;;5093533;28;19964;-69
2023/10/05 03:23:52;;;;;;;;;;;24.70;53.80;;;;;;5093906;28;20010;-67
2023/10/05 03:26:18;;;;;;;;;;;24.70;53.70;;;;;;5093784;28;19927;-68
2023/10/05 03:28:44;;;;;;;;;;;24.60;53.80;;;;;;5093529;28;19920;-71
2023/10/05 03:31:14;;;;;;;;;;;24.50;54.80;;;;;;5094620;28;19920;-71
2023/10/05 03:33:39;;;;;;;;;;;24.30;54.30;;;;;;5093402;28;19973;-71
2023/10/05 03:36:13;;;;;;;;;;;24.10;54.70;;;;;;5093337;28;19939;-70
2023/10/05 03:38:39;;;;;;;;;;;23.90;55.10;;;;;;5093593;28;19926;-68
2023/10/05 03:41:08;;;;;;;;;;;23.60;55.50;;;;;;5099371;28;19924;-71
2023/10/05 03:43:34;;;;;;;;;;;23.50;56.10;;;;;;5096467;28;19920;-67
2023/10/05 03:46:06;;;;;;;;;;;23.20;56.50;;;;;;5114899;28;19926;-67
2023/10/05 03:48:32;;;;;;;;;;;23.00;56.90;;;;;;5114710;28;19920;-68
2023/10/05 03:50:58;;;;;;;;;;;22.80;57.40;;;;;;5096316;28;20380;-71
2023/10/05 03:53:24;;;;;;;;;;;22.60;57.80;;;;;;5096703;28;20315;-67
2023/10/05 03:55:51;;;;;;;;;;;22.50;58.40;;;;;;5096309;28;19919;-71
2023/10/05 03:58:17;;;;;;;;;;;22.30;58.70;;;;;;5114449;28;19919;-67
2023/10/05 04:00:48;;;;;;;;;;;22.10;59.10;;;;;;5096173;28;19927;-68
2023/10/05 04:03:14;;;;;;;;;;;21.90;59.60;;;;;;5096585;28;19927;-70
2023/10/05 04:05:39;;;;;;;;;;;21.80;60.00;;;;;;5095122;28;19920;-67
2023/10/05 04:08:16;;;;;;;;;;;21.60;60.30;;;;;;5096064;28;19997;-67
2023/10/05 04:10:49;;;;;;;;;;;21.50;60.60;;;;;;5096419;28;19919;-68
2023/10/05 04:13:17;;;;;;;;;;;21.30;60.90;;;;;;5114287;28;19927;-68
2023/10/05 04:15:43;;;;;;;;;;;21.30;61.20;;;;;;5114450;28;20295;-69
2023/10/05 04:18:11;;;;;;;;;;;21.20;61.40;;;;;;5114292;28;19927;-70
2023/10/05 04:20:37;;;;;;;;;;;21.20;61.60;;;;;;5095781;28;19920;-67
2023/10/05 04:23:03;;;;;;;;;;;21.20;61.50;;;;;;5114081;28;19920;-67
2023/10/05 04:25:28;;;;;;;;;;;21.30;61.50;;;;;;5095934;28;19919;-67
2023/10/05 04:27:54;;;;;;;;;;;21.30;61.30;;;;;;5114153;28;19979;-67
2023/10/05 04:30:21;;;;;;;;;;;21.40;61.10;;;;;;5095719;28;19920;-67
2023/10/05 04:32:46;;;;;;;;;;;21.40;60.90;;;;;;5095915;28;19919;-68
2023/10/05 04:35:27;;;;;;;;;;;21.50;60.90;;;;;;5130102;27;19919;-68
2023/10/05 04:37:54;;;;;;;;;;;21.50;60.70;;;;;;5095811;28;19919;-67
2023/10/05 04:40:24;;;;;;;;;;;21.50;60.70;;;;;;5095513;28;19920;-69
2023/10/05 04:42:51;;;;;;;;;;;21.50;60.50;;;;;;5113298;28;19967;-70
2023/10/05 04:45:17;;;;;;;;;;;21.60;60.50;;;;;;5113769;28;20379;-67
2023/10/05 04:47:42;;;;;;;;;;;21.50;60.30;;;;;;5129431;27;19919;-71
2023/10/05 04:50:13;;;;;;;;;;;21.60;60.30;;;;;;5095685;28;19927;-70
2023/10/05 04:52:39;;;;;;;;;;;21.60;60.30;;;;;;5113420;28;20378;-70
2023/10/05 04:55:41;;;;;;;;;;;21.60;60.30;;;;;;5095501;28;20295;-69
2023/10/05 04:57:55;;;;;;;;;;;21.60;60.20;;;;;;5113089;28;19923;-70
2023/10/05 05:05:57;;;;;;;;;;;21.60;60.10;;;;;;5089979;28;19912;-70
2023/10/05 05:08:22;;;;;;;;;;;21.60;60.10;;;;;;5088615;28;19921;-70
2023/10/05 05:10:48;;;;;;;;;;;21.60;60.10;;;;;;5088957;28;19920;-67
2023/10/05 05:13:13;;;;;;;;;;;21.60;60.10;;;;;;5088821;28;20324;-70
2023/10/05 05:15:39;;;;;;;;;;;21.70;60.10;;;;;;5089855;28;20345;-70
2023/10/05 05:18:05;;;;;;;;;;;21.60;60.00;;;;;;5088259;28;20003;-70
2023/10/05 05:20:31;;;;;;;;;;;21.60;60.00;;;;;;5088682;28;20003;-70
2023/10/05 05:22:57;;;;;;;;;;;21.60;60.00;;;;;;5088427;28;19928;-67
2023/10/05 05:25:22;;;;;;;;;;;21.60;60.00;;;;;;5088257;28;19925;-67
2023/10/05 05:27:48;;;;;;;;;;;21.60;60.00;;;;;;5087432;28;19924;-68
2023/10/05 05:30:24;;;;;;;;;;;21.70;60.00;;;;;;5088251;28;19921;-69
2023/10/05 05:32:50;;;;;;;;;;;21.70;60.00;;;;;;5088066;28;19927;-70
2023/10/05 05:35:16;;;;;;;;;;;21.70;59.90;;;;;;5088727;28;19935;-69
2023/10/05 05:37:42;;;;;;;;;;;21.70;59.90;;;;;;5087951;28;19924;-71
2023/10/05 05:40:12;;;;;;;;;;;21.60;59.90;;;;;;5087645;28;19946;-66
2023/10/05 05:42:39;;;;;;;;;;;21.60;59.90;;;;;;5087249;28;19979;-69
2023/10/05 05:45:15;;;;;;;;;;;21.60;59.80;;;;;;5086892;28;19924;-66
2023/10/05 05:47:43;;;;;;;;;;;21.60;59.80;;;;;;5087702;28;19920;-68
2023/10/05 05:50:15;;;;;;;;;;;21.60;59.90;;;;;;5084297;28;20379;-73
2023/10/05 05:52:41;;;;;;;;;;;21.50;59.90;;;;;;5084953;28;19924;-67
2023/10/05 05:55:10;;;;;;;;;;;21.40;60.00;;;;;;5084874;28;19960;-72
2023/10/05 05:57:36;;;;;;;;;;;21.30;60.30;;;;;;5086954;28;20333;-70
2023/10/05 06:00:10;;;;;;;;;;;21.20;61.20;;;;;;5076025;28;20530;-73
2023/10/05 06:02:40;;;;;;;;;;;21.10;60.80;;;;;;5064571;28;19962;-73
2023/10/05 06:05:08;;;;;;;;;;;21.10;60.90;;;;;;5088220;28;20024;-73
2023/10/05 06:07:35;;;;;;;;;;;21.20;60.80;;;;;;5087685;28;20137;-70
2023/10/05 06:10:01;;;;;;;;;;;21.30;60.50;;;;;;5097311;28;19924;-74
2023/10/05 06:12:26;;;;;;;;;;;21.40;60.30;;;;;;5081762;28;20572;-74
2023/10/05 06:14:52;;;;;;;;;;;21.50;60.10;;;;;;5082623;28;19920;-67
2023/10/05 06:17:19;;;;;;;;;;;21.60;60.00;;;;;;5070315;28;19920;-67
2023/10/05 06:19:47;;;;;;;;;;;21.60;59.80;;;;;;5088717;28;19920;-74
2023/10/05 06:22:13;;;;;;;;;;;21.70;59.70;;;;;;5070452;28;20395;-67
2023/10/05 06:24:42;;;;;;;;;;;21.70;59.60;;;;;;5071456;28;20006;-68
2023/10/05 06:27:07;;;;;;;;;;;21.70;59.40;;;;;;5072160;28;20383;-70
2023/10/05 06:29:33;;;;;;;;;;;21.80;59.40;;;;;;5089688;28;20020;-67
2023/10/05 06:32:00;;;;;;;;;;;21.70;59.30;;;;;;5072098;28;19926;-67
2023/10/05 06:34:25;;;;;;;;;;;21.70;59.30;;;;;;5088137;28;19920;-68
2023/10/05 06:36:52;;;;;;;;;;;21.70;59.40;;;;;;5063313;28;19951;-73
2023/10/05 06:39:18;;;;;;;;;;;21.60;59.40;;;;;;5076663;28;19961;-67
2023/10/05 06:41:45;;;;;;;;;;;21.60;59.40;;;;;;5055527;28;19936;-74
2023/10/05 06:44:11;;;;;;;;;;;21.60;59.60;;;;;;5059006;28;19932;-68
2023/10/05 06:46:37;;;;;;;;;;;21.50;59.70;;;;;;5062776;28;19920;-68
2023/10/05 06:49:05;;;;;;;;;;;21.40;59.80;;;;;;5077576;28;19921;-68
2023/10/05 06:51:31;;;;;;;;;;;21.40;59.90;;;;;;5079124;28;19928;-68
2023/10/05 06:53:57;;;;;;;;;;;21.50;60.00;;;;;;5076665;28;20481;-68
2023/10/05 06:56:23;;;;;;;;;;;21.50;59.90;;;;;;5052397;28;19927;-67
2023/10/05 06:58:49;;;;;;;;;;;21.50;59.90;;;;;;5063342;28;20014;-68
2023/10/05 07:01:14;;;;;;;;;;;21.50;59.80;;;;;;5057491;28;20023;-68
2023/10/05 07:03:40;;;;;;;;;;;21.50;59.80;;;;;;5075813;28;19989;-68
2023/10/05 07:06:06;;;;;;;;;;;21.50;59.80;;;;;;5071685;28;19928;-68
2023/10/05 07:08:32;;;;;;;;;;;21.50;59.80;;;;;;5057798;28;20361;-68
2023/10/05 07:10:57;;;;;;;;;;;21.50;59.80;;;;;;5057438;28;20317;-68
2023/10/05 07:13:24;;;;;;;;;;;21.50;59.80;;;;;;5057166;28;19959;-68
2023/10/05 07:15:49;;;;;;;;;;;21.50;59.90;;;;;;5057951;28;19924;-68
2023/10/05 07:18:18;;;;;;;;;;;21.50;59.90;;;;;;5077518;28;19950;-71
2023/10/05 07:20:44;;;;;;;;;;;21.50;59.90;;;;;;5072472;28;19963;-74
2023/10/05 07:23:09;;;;;;;;;;;21.50;59.80;;;;;;5058767;28;19952;-74
2023/10/05 07:25:36;;;;;;;;;;;21.50;59.80;;;;;;5072006;28;20001;-67
2023/10/05 07:28:03;;;;;;;;;;;21.60;59.80;;;;;;5052830;28;19935;-69
2023/10/05 07:30:29;;;;;;;;;;;21.60;59.70;;;;;;5072186;28;19932;-67
2023/10/05 07:32:54;;;;;;;;;;;21.60;59.70;;;;;;5053941;28;19924;-68
2023/10/05 07:35:21;;;;;;;;;;;21.70;59.70;;;;;;5075218;28;19920;-69
2023/10/05 07:37:47;;;;;;;;;;;21.70;59.70;;;;;;5055410;28;19926;-70
2023/10/05 07:40:13;;;;;;;;;;;21.70;59.70;;;;;;5047137;28;19931;-69
2023/10/05 07:42:39;;;;;;;;;;;21.70;59.80;;;;;;5050440;28;20597;-73
2023/10/05 07:45:07;;;;;;;;;;;21.60;59.80;;;;;;5049398;28;20579;-70
2023/10/05 07:47:39;;;;;;;;;;;21.60;59.90;;;;;;5070180;28;20353;-71
2023/10/05 07:50:05;;;;;;;;;;;21.60;60.00;;;;;;5074546;28;19924;-68
2023/10/05 07:52:32;;;;;;;;;;;21.70;60.00;;;;;;5072965;28;20196;-73
2023/10/05 07:54:57;;;;;;;;;;;21.60;60.00;;;;;;5056065;28;19943;-69
2023/10/05 07:57:23;;;;;;;;;;;21.60;60.10;;;;;;5068789;28;20329;-68
2023/10/05 07:59:48;;;;;;;;;;;21.60;60.20;;;;;;5056413;28;19923;-68
2023/10/05 08:02:14;;;;;;;;;;;21.60;60.20;;;;;;5053548;28;19924;-67
2023/10/05 08:04:40;;;;;;;;;;;21.60;60.20;;;;;;5074463;28;19928;-67
2023/10/05 08:07:06;;;;;;;;;;;21.60;60.20;;;;;;5069396;28;20015;-67
2023/10/05 08:09:31;;;;;;;;;;;21.60;60.30;;;;;;5056251;28;20027;-69
2023/10/05 08:11:57;;;;;;;;;;;21.60;60.40;;;;;;5071025;28;19963;-67
2023/10/05 08:14:24;;;;;;;;;;;21.60;60.60;;;;;;5055211;28;19924;-68
2023/10/05 08:16:50;;;;;;;;;;;21.60;60.80;;;;;;5072139;28;20808;-68
2023/10/05 08:19:16;;;;;;;;;;;21.60;60.90;;;;;;5058559;28;19920;-67
2023/10/05 08:21:42;;;;;;;;;;;21.60;61.00;;;;;;5051125;28;19928;-69
2023/10/05 08:24:08;;;;;;;;;;;21.60;61.10;;;;;;5055378;28;19974;-72
2023/10/05 08:26:33;;;;;;;;;;;21.60;61.30;;;;;;5065761;28;19939;-71
2023/10/05 08:28:59;;;;;;;;;;;21.60;61.30;;;;;;5056851;28;19931;-72
2023/10/05 08:31:25;;;;;;;;;;;21.60;61.50;;;;;;5075293;28;19966;-73
2023/10/05 08:33:54;;;;;;;;;;;21.60;61.60;;;;;;5058692;28;19919;-69
2023/10/05 08:36:20;;;;;;;;;;;21.50;61.60;;;;;;5071002;28;19927;-69
2023/10/05 08:38:49;;;;;;;;;;;21.50;61.70;;;;;;5058495;28;19920;-73
2023/10/05 08:41:24;;;;;;;;;;;21.50;61.80;;;;;;5074612;28;20763;-69
2023/10/05 08:43:50;;;;;;;;;;;21.50;61.80;;;;;;5057248;28;20320;-69
2023/10/05 08:46:18;;;;;;;;;;;21.50;61.90;;;;;;5074382;28;19920;-69
2023/10/05 08:48:46;;;;;;;;;;;21.40;61.90;;;;;;5072730;28;20385;-69
2023/10/05 08:51:13;;;;;;;;;;;21.40;62.00;;;;;;5070554;28;19929;-70
2023/10/05 08:53:44;;;;;;;;;;;21.40;62.00;;;;;;5055594;28;19924;-70
2023/10/05 08:56:13;;;;;;;;;;;21.30;62.10;;;;;;5051359;28;19977;-68
2023/10/05 08:58:41;;;;;;;;;;;21.30;62.10;;;;;;5055430;28;20371;-69
2023/10/05 09:01:30;;;;;;;;;;;21.30;62.20;;;;;;5061501;28;20504;-75
2023/10/05 09:04:11;;;;;;;;;;;21.30;62.30;;;;;;5070560;28;19932;-69
2023/10/05 09:06:47;;;;;;;;;;;21.40;62.30;;;;;;5069772;28;19924;-68
2023/10/05 09:09:14;;;;;;;;;;;21.30;62.30;;;;;;5059426;28;20351;-69
2023/10/05 09:11:40;;;;;;;;;;;21.30;62.40;;;;;;5054852;28;19989;-69
2023/10/05 09:14:17;;;;;;;;;;;21.30;62.50;;;;;;5053632;28;20010;-69
2023/10/05 09:16:43;;;;;;;;;;;21.30;62.60;;;;;;5072754;28;20007;-69
2023/10/05 09:19:12;;;;;;;;;;;21.30;63.40;;;;;;5062431;28;19928;-69
2023/10/05 09:21:42;;;;;;;;;;;21.30;62.80;;;;;;5057683;28;20007;-70
2023/10/05 09:24:20;;;;;;;;;;;21.30;62.90;;;;;;5074644;28;20030;-70
2023/10/05 09:26:53;;;;;;;;;;;21.30;63.00;;;;;;5074507;28;20676;-70
2023/10/05 09:29:21;;;;;;;;;;;21.30;63.00;;;;;;5072003;28;19939;-69
2023/10/05 09:31:50;;;;;;;;;;;21.30;63.00;;;;;;5067842;28;19973;-68
2023/10/05 09:34:19;;;;;;;;;;;21.30;63.10;;;;;;5056013;28;19931;-71
2023/10/05 09:36:45;;;;;;;;;;;21.30;64.00;;;;;;5071954;28;19972;-70
2023/10/05 09:39:14;;;;;;;;;;;21.30;63.30;;;;;;5054967;28;19970;-72
2023/10/05 09:41:41;;;;;;;;;;;21.30;63.30;;;;;;5055043;28;19971;-71
2023/10/05 09:44:09;;;;;;;;;;;21.30;63.40;;;;;;5058648;28;19953;-69
2023/10/05 09:46:35;;;;;;;;;;;21.30;63.70;;;;;;5060428;28;19959;-72
2023/10/05 09:49:02;;;;;;;;;;;21.30;63.80;;;;;;5067261;28;19928;-72
2023/10/05 09:51:28;;;;;;;;;;;21.30;64.00;;;;;;5068364;28;20396;-70
2023/10/05 09:53:56;;;;;;;;;;;21.30;64.00;;;;;;5077356;28;19920;-73
2023/10/05 09:56:25;;;;;;;;;;;21.40;64.20;;;;;;5058406;28;19935;-72
2023/10/05 09:58:53;;;;;;;;;;;21.40;64.30;;;;;;5055527;28;20371;-75
2023/10/05 10:01:20;;;;;;;;;;;21.50;64.50;;;;;;5059739;28;19920;-71
2023/10/05 10:03:46;;;;;;;;;;;21.50;64.60;;;;;;5073118;28;19932;-76
2023/10/05 10:06:13;;;;;;;;;;;21.50;64.60;;;;;;5071047;28;19993;-72
2023/10/05 10:08:51;;;;;;;;;;;21.40;64.60;;;;;;5077017;28;19920;-70
2023/10/05 10:11:18;;;;;;;;;;;21.40;64.80;;;;;;5069379;28;19927;-72
2023/10/05 10:13:50;;;;;;;;;;;21.30;64.70;;;;;;5069308;28;20007;-68
2023/10/05 10:16:21;;;;;;;;;;;21.30;64.90;;;;;;5070588;28;19932;-76
2023/10/05 10:21:46;;;;;;;;;;;21.30;64.90;;;;;;5095919;27;19916;-72
2023/10/05 10:24:15;;;;;;;;;;;21.30;64.90;;;;;;5103981;28;19927;-71
2023/10/05 10:26:43;;;;;;;;;;;21.20;64.90;;;;;;5107639;28;19969;-69
2023/10/05 10:29:11;;;;;;;;;;;21.20;64.90;;;;;;5108566;28;19920;-70
2023/10/05 10:31:42;;;;;;;;;;;21.20;64.90;;;;;;5107345;28;19927;-70
2023/10/05 10:34:10;;;;;;;;;;;21.20;64.90;;;;;;5106315;28;19923;-72
2023/10/05 10:36:52;;;;;;;;;;;21.20;64.90;;;;;;5096456;28;19927;-72
2023/10/05 10:39:35;;;;;;;;;;;21.20;64.90;;;;;;5091417;28;19981;-70
2023/10/05 10:42:04;;;;;;;;;;;21.20;64.90;;;;;;5096820;28;19920;-72
2023/10/05 10:44:41;;;;;;;;;;;21.20;64.90;;;;;;5100304;28;19924;-71
2023/10/05 10:47:08;;;;;;;;;;;21.20;64.70;;;;;;5092876;28;20342;-73
2023/10/05 10:49:34;;;;;;;;;;;21.20;64.70;;;;;;5124383;27;20440;-70
2023/10/05 10:52:02;;;;;;;;;;;21.20;64.80;;;;;;5094723;28;19927;-74
2023/10/05 10:54:33;;;;;;;;;;;21.20;64.80;;;;;;5121979;27;19935;-73
2023/10/05 10:56:59;;;;;;;;;;;21.20;64.70;;;;;;5094010;28;19927;-73
2023/10/05 10:59:26;;;;;;;;;;;21.20;64.80;;;;;;5092989;28;19936;-74
2023/10/05 11:01:53;;;;;;;;;;;21.20;64.80;;;;;;5088223;28;19955;-70
2023/10/05 11:04:26;;;;;;;;;;;21.20;64.90;;;;;;5094631;28;19984;-72
2023/10/05 11:06:53;;;;;;;;;;;21.20;64.90;;;;;;5096466;28;20032;-73
2023/10/05 11:09:29;;;;;;;;;;;21.20;65.00;;;;;;5093311;28;20425;-72
2023/10/05 11:12:08;;;;;;;;;;;21.20;65.00;;;;;;5122326;27;19924;-72
2023/10/05 11:14:34;;;;;;;;;;;21.20;65.10;;;;;;5087711;28;20574;-70
2023/10/05 11:17:00;;;;;;;;;;;21.20;65.20;;;;;;5093831;28;19923;-72
2023/10/05 11:19:40;;;;;;;;;;;21.20;65.20;;;;;;5088000;27;19927;-72
2023/10/05 11:22:11;;;;;;;;;;;21.20;66.10;;;;;;5115658;27;20526;-72
2023/10/05 11:24:56;;;;;;;;;;;21.20;65.40;;;;;;5095200;27;19972;-72
2023/10/05 11:27:23;;;;;;;;;;;21.20;65.50;;;;;;5108799;27;19926;-72
2023/10/05 11:29:55;;;;;;;;;;;21.20;65.50;;;;;;5088183;27;19923;-72
2023/10/05 11:32:23;;;;;;;;;;;21.20;65.60;;;;;;5086228;27;19931;-72
2023/10/05 11:34:55;;;;;;;;;;;21.20;65.60;;;;;;5109462;27;20375;-71
2023/10/05 11:37:23;;;;;;;;;;;21.10;65.50;;;;;;5078691;27;19935;-72
2023/10/05 11:39:49;;;;;;;;;;;21.10;65.60;;;;;;5080643;27;20097;-71
2023/10/05 11:42:16;;;;;;;;;;;21.00;65.70;;;;;;5078322;28;19934;-71
2023/10/05 11:44:44;;;;;;;;;;;21.00;65.80;;;;;;5080246;28;19931;-72
2023/10/05 11:47:29;;;;;;;;;;;21.00;65.90;;;;;;5080008;27;19928;-71
2023/10/05 11:49:56;;;;;;;;;;;20.90;66.00;;;;;;5085220;27;19928;-72
2023/10/05 11:52:23;;;;;;;;;;;20.90;66.10;;;;;;5080626;27;20324;-73
2023/10/05 11:54:49;;;;;;;;;;;20.90;66.20;;;;;;5082472;28;19950;-74
2023/10/05 11:57:16;;;;;;;;;;;20.90;66.30;;;;;;5095856;27;19966;-79
2023/10/05 11:59:42;;;;;;;;;;;20.90;66.30;;;;;;5073252;27;19992;-77
2023/10/05 12:02:08;;;;;;;;;;;20.80;66.30;;;;;;5096667;27;19972;-76
2023/10/05 12:04:39;;;;;;;;;;;20.80;66.50;;;;;;5093028;27;19927;-75
2023/10/05 12:07:05;;;;;;;;;;;20.80;66.60;;;;;;5077585;27;20438;-71
2023/10/05 12:09:32;;;;;;;;;;;20.80;66.70;;;;;;5083037;27;20519;-79
2023/10/05 12:11:58;;;;;;;;;;;20.80;66.80;;;;;;5105374;27;20890;-75
2023/10/05 12:14:25;;;;;;;;;;;20.80;66.80;;;;;;5101196;27;19928;-75
2023/10/05 12:16:52;;;;;;;;;;;20.80;66.90;;;;;;5100213;27;20672;-72
2023/10/05 12:19:27;;;;;;;;;;;20.70;66.90;;;;;;5094849;27;20015;-71
2023/10/05 12:21:53;;;;;;;;;;;20.70;67.00;;;;;;5083550;27;20182;-73
2023/10/05 12:24:19;;;;;;;;;;;20.70;67.10;;;;;;5081834;28;20387;-73
2023/10/05 12:26:45;;;;;;;;;;;20.70;67.20;;;;;;5077971;27;20014;-78
2023/10/05 12:29:14;;;;;;;;;;;20.70;67.30;;;;;;5096037;27;19927;-72
2023/10/05 12:31:41;;;;;;;;;;;20.70;67.50;;;;;;5080159;27;19930;-72
2023/10/05 12:34:14;;;;;;;;;;;20.70;67.50;;;;;;5080362;27;19924;-78
2023/10/05 12:36:40;;;;;;;;;;;20.70;67.70;;;;;;5069178;27;19923;-74
2023/10/05 12:39:11;;;;;;;;;;;20.70;67.90;;;;;;5076640;27;19934;-75
2023/10/05 12:41:40;;;;;;;;;;;20.70;67.90;;;;;;5081012;27;19971;-74
2023/10/05 12:44:09;;;;;;;;;;;20.70;68.00;;;;;;5078121;27;19981;-79
2023/10/05 12:46:39;;;;;;;;;;;20.70;68.00;;;;;;5094667;27;20680;-74
2023/10/05 12:49:07;;;;;;;;;;;20.70;68.20;;;;;;5107625;27;20486;-74
2023/10/05 12:51:34;;;;;;;;;;;20.70;68.20;;;;;;5078191;27;19919;-75
2023/10/05 12:53:59;;;;;;;;;;;20.60;68.30;;;;;;5069165;27;20502;-74
2023/10/05 12:56:25;;;;;;;;;;;20.60;68.20;;;;;;5080812;27;19924;-72
2023/10/05 12:58:50;;;;;;;;;;;20.60;68.30;;;;;;5075192;28;19927;-72
2023/10/05 13:01:17;;;;;;;;;;;20.60;68.30;;;;;;5098279;27;19928;-72
2023/10/05 13:03:44;;;;;;;;;;;20.60;68.30;;;;;;5098648;27;19956;-74
2023/10/05 13:06:10;;;;;;;;;;;20.60;68.30;;;;;;5084486;27;19924;-73
2023/10/05 13:08:37;;;;;;;;;;;20.60;68.30;;;;;;5111282;27;19926;-70
2023/10/05 13:11:03;;;;;;;;;;;20.60;68.30;;;;;;5082340;28;19923;-73
2023/10/05 13:13:29;;;;;;;;;;;20.50;68.20;;;;;;5083099;28;19923;-75
2023/10/05 13:15:54;;;;;;;;;;;20.50;68.30;;;;;;5102963;27;19934;-71
2023/10/05 13:18:21;;;;;;;;;;;20.60;68.30;;;;;;5108842;27;19928;-79
2023/10/05 13:20:48;;;;;;;;;;;20.50;68.20;;;;;;5101658;27;19984;-74
2023/10/05 13:23:15;;;;;;;;;;;20.50;68.20;;;;;;5084634;28;20050;-74
2023/10/05 13:25:43;;;;;;;;;;;20.60;68.30;;;;;;5109320;27;19924;-70
2023/10/05 13:28:11;;;;;;;;;;;20.60;68.50;;;;;;5090207;27;19925;-70
2023/10/05 13:30:41;;;;;;;;;;;20.60;68.60;;;;;;5098643;28;19920;-70
2023/10/05 13:33:13;;;;;;;;;;;20.60;68.50;;;;;;5094095;27;19942;-71
2023/10/05 13:35:41;;;;;;;;;;;20.60;68.50;;;;;;5115486;27;19919;-71
2023/10/05 13:38:12;;;;;;;;;;;20.60;68.40;;;;;;5121692;27;20018;-71
2023/10/05 13:40:38;;;;;;;;;;;20.60;68.40;;;;;;5104888;28;20317;-70
2023/10/05 13:43:04;;;;;;;;;;;20.70;68.40;;;;;;5094721;27;19923;-70
2023/10/05 13:45:30;;;;;;;;;;;20.60;68.40;;;;;;5093655;28;19942;-71
2023/10/05 13:47:56;;;;;;;;;;;20.60;68.40;;;;;;5091188;28;19980;-70
2023/10/05 13:50:23;;;;;;;;;;;20.60;68.40;;;;;;5099464;27;19920;-71
2023/10/05 13:52:51;;;;;;;;;;;20.60;68.50;;;;;;5113287;27;19930;-70
2023/10/05 13:55:20;;;;;;;;;;;20.60;68.40;;;;;;5097414;27;19927;-69
2023/10/05 13:57:47;;;;;;;;;;;20.60;68.50;;;;;;5107707;27;20511;-71
2023/10/05 14:00:19;;;;;;;;;;;20.60;68.50;;;;;;5097411;27;19968;-72
2023/10/05 14:02:44;;;;;;;;;;;20.60;68.50;;;;;;5096131;27;19963;-73
2023/10/05 14:05:10;;;;;;;;;;;20.60;68.60;;;;;;5092812;28;19963;-74
2023/10/05 14:07:35;;;;;;;;;;;20.60;68.60;;;;;;5087369;28;20391;-71
2023/10/05 14:10:05;;;;;;;;;;;20.60;68.50;;;;;;5091106;28;19920;-75
2023/10/05 14:12:31;;;;;;;;;;;20.70;68.60;;;;;;5089020;28;19972;-73
2023/10/05 14:14:58;;;;;;;;;;;20.60;68.60;;;;;;5092895;27;19919;-73
2023/10/05 14:17:24;;;;;;;;;;;20.60;68.60;;;;;;5109828;28;19924;-72
2023/10/05 14:19:50;;;;;;;;;;;20.60;68.60;;;;;;5110186;28;20555;-72
2023/10/05 14:22:15;;;;;;;;;;;20.60;68.50;;;;;;5103729;28;20003;-72
2023/10/05 14:24:45;;;;;;;;;;;20.60;68.60;;;;;;5094980;28;19997;-75
2023/10/05 14:27:11;;;;;;;;;;;20.70;68.70;;;;;;5091678;28;20446;-74
2023/10/05 14:29:37;;;;;;;;;;;20.70;68.70;;;;;;5090090;28;19928;-73
2023/10/05 14:32:04;;;;;;;;;;;20.70;68.70;;;;;;5087274;28;19920;-73
2023/10/05 14:34:32;;;;;;;;;;;20.70;68.70;;;;;;5091021;28;19920;-73
2023/10/05 14:36:58;;;;;;;;;;;20.70;68.70;;;;;;5088555;28;20024;-72